Time;durP1;ratioP1;P1;durP2;ratioP2;P2;SDS_P1;SDS_P2;PMS_P1;PMS_P2;Temp;Humidity;BMP_temperature;BMP_pressure;BME280_temperature;BME280_humidity;BME280_pressure;Samples;Min_cycle;Max_cycle;Signal;HPM_P1;HPM_P2
2022/08/02 00:01:33;;;;;;;4.53;1.30;;;;;;;17.99;53.15;94611.72;5092584;28;20028;-78
2022/08/02 00:03:58;;;;;;;1.73;1.30;;;;;;;17.95;52.29;94607.84;5093493;28;20406;-78
2022/08/02 00:06:24;;;;;;;1.70;1.30;;;;;;;17.99;51.48;94609.09;5075703;28;20052;-78
2022/08/02 00:08:50;;;;;;;2.72;1.30;;;;;;;18.37;53.68;94656.44;5094051;28;20077;-78
2022/08/02 00:11:15;;;;;;;2.30;1.23;;;;;;;18.36;51.79;94658.25;5092489;28;20024;-78
2022/08/02 00:13:41;;;;;;;2.00;1.27;;;;;;;18.33;51.99;94663.88;5093889;28;20044;-78
2022/08/02 00:16:06;;;;;;;1.73;1.20;;;;;;;18.42;51.50;94661.97;5093620;28;20542;-78
2022/08/02 00:18:32;;;;;;;1.67;1.13;;;;;;;18.41;51.28;94655.88;5092212;28;20032;-78
2022/08/02 00:20:57;;;;;;;2.20;1.15;;;;;;;18.45;50.28;94653.72;5091662;28;20481;-78
2022/08/02 00:23:23;;;;;;;4.28;1.40;;;;;;;18.39;52.10;94654.44;5093618;28;20474;-78
2022/08/02 00:25:48;;;;;;;1.88;1.25;;;;;;;18.12;52.24;94614.59;5092038;28;20032;-78
2022/08/02 00:28:14;;;;;;;3.28;1.58;;;;;;;18.37;50.41;94656.44;5090806;28;20036;-78
2022/08/02 00:30:39;;;;;;;2.10;1.30;;;;;;;18.33;50.03;94645.47;5091291;28;20028;-78
2022/08/02 00:33:06;;;;;;;1.77;1.45;;;;;;;18.06;50.59;94602.97;5089970;28;20032;-78
2022/08/02 00:35:32;;;;;;;2.17;1.65;;;;;;;18.25;50.14;94643.72;5091016;28;20037;-78
2022/08/02 00:37:57;;;;;;;2.40;1.50;;;;;;;18.31;48.78;94650.06;5053030;28;20040;-79
2022/08/02 00:40:23;;;;;;;4.10;1.38;;;;;;;18.36;49.96;94649.53;5069577;28;20028;-78
2022/08/02 00:43:10;;;;;;;2.28;1.20;;;;;;;18.41;51.85;94652.44;5053567;28;20033;-79
2022/08/02 00:45:36;;;;;;;3.05;1.80;;;;;;;18.37;52.42;94657.25;5071688;28;20071;-78
2022/08/02 00:48:02;;;;;;;2.47;1.48;;;;;;;18.15;53.56;94653.66;5072907;28;20029;-78
2022/08/02 00:50:28;;;;;;;4.40;1.50;;;;;;;18.09;54.18;94657.00;5071654;28;20032;-78
2022/08/02 00:52:53;;;;;;;2.22;1.50;;;;;;;17.86;54.79;94642.06;5072711;28;20043;-78
2022/08/02 00:55:19;;;;;;;2.92;1.63;;;;;;;17.74;55.51;94659.19;5071205;28;20033;-78
2022/08/02 00:57:45;;;;;;;2.67;1.90;;;;;;;17.60;56.17;94666.00;5072552;28;20086;-78
2022/08/02 01:00:11;;;;;;;1.83;1.40;;;;;;;17.42;56.41;94655.78;5072559;28;20074;-78
2022/08/02 01:02:36;;;;;;;1.85;1.45;;;;;;;17.36;57.11;94664.34;5054474;28;20032;-78
2022/08/02 01:05:02;;;;;;;3.17;1.70;;;;;;;17.12;57.44;94640.84;5072314;28;20025;-78
2022/08/02 01:07:28;;;;;;;4.25;1.55;;;;;;;17.03;57.86;94655.00;5072233;28;20453;-78
2022/08/02 01:09:53;;;;;;;2.42;1.55;;;;;;;16.57;58.72;94615.44;5072284;28;20033;-78
2022/08/02 01:12:19;;;;;;;3.17;1.83;;;;;;;16.62;59.51;94665.56;5054452;28;20013;-78
2022/08/02 01:14:50;;;;;;;2.35;1.50;;;;;;;16.14;59.70;94626.16;5072129;28;20094;-79
2022/08/02 01:17:26;;;;;;;3.10;1.70;;;;;;;16.20;60.32;94646.47;5054918;28;20028;-78
2022/08/02 01:20:21;;;;;;;2.47;1.73;;;;;;;16.20;60.38;94661.38;5072341;28;20030;-78
2022/08/02 01:23:01;;;;;;;2.80;1.58;;;;;;;16.31;60.72;94664.47;5056737;28;20040;-78
2022/08/02 01:25:46;;;;;;;3.45;1.77;;;;;;;16.04;61.28;94665.63;5070643;28;20513;-78
2022/08/02 01:28:31;;;;;;;3.38;1.63;;;;;;;15.81;62.66;94669.88;5070950;28;20033;-78
2022/08/02 01:31:00;;;;;;;4.82;2.08;;;;;;;15.62;63.01;94663.13;5071861;28;20029;-78
2022/08/02 01:33:31;;;;;;;3.65;2.05;;;;;;;15.57;63.82;94668.00;5072023;28;20727;-78
2022/08/02 01:35:56;;;;;;;;;;;;;;;15.59;63.63;94666.06;5071052;28;20100;-78
2022/08/02 01:38:38;;;;;;;3.50;2.17;;;;;;;15.46;63.52;94660.47;5088111;28;20062;-78
2022/08/02 01:41:03;;;;;;;4.05;2.08;;;;;;;15.44;63.54;94654.59;5075383;28;20031;-78
2022/08/02 01:43:29;;;;;;;3.45;2.03;;;;;;;15.18;63.91;94618.84;5090447;28;20032;-78
2022/08/02 01:45:54;;;;;;;4.80;2.22;;;;;;;15.02;63.97;94613.59;5090388;28;20056;-78
2022/08/02 01:48:20;;;;;;;2.72;1.90;;;;;;;15.31;64.71;94666.31;5091950;28;20032;-78
2022/08/02 01:50:45;;;;;;;3.45;2.08;;;;;;;14.96;64.56;94610.63;5056736;28;20108;-78
2022/08/02 01:53:11;;;;;;;3.22;2.20;;;;;;;14.92;65.30;94642.50;5091930;28;20039;-78
2022/08/02 01:55:45;;;;;;;3.95;2.10;;;;;;;14.70;65.84;94612.50;5090187;28;20039;-78
2022/08/02 01:58:13;;;;;;;2.85;2.28;;;;;;;14.67;65.76;94621.47;5090438;28;20031;-78
2022/08/02 02:00:39;;;;;;;3.17;2.50;;;;;;;14.79;65.87;94621.19;5057661;28;20031;-78
2022/08/02 02:03:05;;;;;;;2.70;2.13;;;;;;;15.01;65.94;94672.09;5090389;28;20123;-78
2022/08/02 02:05:31;;;;;;;4.18;2.13;;;;;;;14.57;66.07;94615.56;5073414;28;20089;-78
2022/08/02 02:07:57;;;;;;;2.83;2.17;;;;;;;14.75;65.79;94649.44;5091581;28;20043;-78
2022/08/02 02:10:33;;;;;;;2.95;2.25;;;;;;;14.85;66.48;94663.22;5073113;28;20447;-78
2022/08/02 02:13:03;;;;;;;2.55;2.00;;;;;;;14.86;66.05;94651.78;5090242;28;20077;-78
2022/08/02 02:15:30;;;;;;;3.20;2.30;;;;;;;15.00;66.10;94668.69;5091209;28;20020;-77
2022/08/02 02:17:56;;;;;;;5.03;2.50;;;;;;;14.80;66.40;94667.28;5073330;28;20089;-78
2022/08/02 02:20:21;;;;;;;2.95;2.20;;;;;;;14.74;65.97;94664.31;5091183;28;20035;-78
2022/08/02 02:22:47;;;;;;;2.80;2.38;;;;;;;14.58;65.77;94664.22;5090126;28;20061;-78
2022/08/02 02:25:13;;;;;;;3.15;2.00;;;;;;;14.23;66.44;94608.44;5089465;28;20500;-78
2022/08/02 02:27:44;;;;;;;2.67;2.20;;;;;;;14.54;66.39;94662.88;5091182;28;20149;-78
2022/08/02 02:30:11;;;;;;;3.38;2.15;;;;;;;14.75;66.01;94660.72;5090796;28;20062;-78
2022/08/02 02:32:36;;;;;;;3.45;2.10;;;;;;;14.51;66.23;94653.56;5089847;28;20417;-78
2022/08/02 02:35:02;;;;;;;3.88;2.00;;;;;;;14.59;65.75;94665.03;5091099;28;20277;-78
2022/08/02 02:37:28;;;;;;;2.92;2.00;;;;;;;14.20;66.90;94619.22;5082065;28;20401;-78
2022/08/02 02:39:54;;;;;;;4.97;2.50;;;;;;;14.42;66.06;94658.88;5069844;28;20024;-78
2022/08/02 02:42:22;;;;;;;2.50;2.08;;;;;;;14.20;66.22;94663.63;5052569;28;20021;-78
2022/08/02 02:44:48;;;;;;;3.75;2.22;;;;;;;14.16;66.73;94661.50;5080582;28;20048;-78
2022/08/02 02:47:14;;;;;;;2.83;2.28;;;;;;;14.35;66.05;94666.50;5056066;28;20453;-78
2022/08/02 02:49:40;;;;;;;3.60;2.28;;;;;;;13.98;66.48;94614.50;5072705;28;20016;-78
2022/08/02 02:52:05;;;;;;;4.22;2.00;;;;;;;14.45;66.35;94666.41;5090557;28;20031;-78
2022/08/02 02:54:31;;;;;;;2.75;2.22;;;;;;;14.37;66.89;94667.16;5072646;28;20040;-78
2022/08/02 02:56:57;;;;;;;2.70;1.95;;;;;;;14.31;65.58;94668.59;5072865;28;20040;-78
2022/08/02 02:59:23;;;;;;;2.33;2.13;;;;;;;14.30;66.40;94661.75;5072686;28;20027;-78
2022/08/02 03:01:48;;;;;;;2.72;2.08;;;;;;;14.41;66.18;94668.50;5056065;28;20032;-78
2022/08/02 03:04:14;;;;;;;4.30;2.10;;;;;;;14.49;65.07;94657.28;5072837;28;20478;-78
2022/08/02 03:06:40;;;;;;;2.47;1.92;;;;;;;14.62;64.97;94659.50;5072567;28;20036;-78
2022/08/02 03:09:05;;;;;;;3.45;2.10;;;;;;;14.51;65.21;94653.56;5090235;28;20478;-78
2022/08/02 03:11:31;;;;;;;5.88;2.00;;;;;;;14.29;65.29;94626.16;5090529;28;20024;-77
2022/08/02 03:14:00;;;;;;;2.30;1.80;;;;;;;14.41;64.42;94615.44;5039411;28;20078;-78
2022/08/02 03:16:27;;;;;;;3.47;2.20;;;;;;;14.74;64.08;94668.72;5090505;28;20123;-78
2022/08/02 03:18:53;;;;;;;2.65;1.90;;;;;;;14.41;64.86;94615.44;5072743;28;20036;-78
2022/08/02 03:21:18;;;;;;;3.70;1.98;;;;;;;14.73;65.54;94673.13;5055672;28;20039;-78
2022/08/02 03:23:44;;;;;;;2.78;2.08;;;;;;;14.55;65.69;94669.78;5090340;28;20032;-78
2022/08/02 03:26:09;;;;;;;2.60;2.03;;;;;;;14.22;66.41;94622.50;5090172;28;20028;-78
2022/08/02 03:28:35;;;;;;;3.38;2.20;;;;;;;14.27;65.48;94651.59;5090423;28;20032;-78
2022/08/02 03:31:00;;;;;;;3.72;2.35;;;;;;;14.43;66.25;94660.50;5072524;28;20107;-79
2022/08/02 03:33:26;;;;;;;2.42;2.00;;;;;;;14.53;65.39;94671.72;5039137;28;20032;-78
2022/08/02 03:35:53;;;;;;;3.40;2.28;;;;;;;14.29;65.43;94649.66;5072497;28;20024;-78
2022/08/02 03:38:20;;;;;;;2.50;1.98;;;;;;;14.31;65.40;94637.25;5088326;28;20024;-79
2022/08/02 03:40:46;;;;;;;4.95;2.28;;;;;;;14.36;65.30;94617.69;5110480;28;20108;-78
2022/08/02 03:43:11;;;;;;;3.55;2.00;;;;;;;14.62;65.57;94655.09;5111027;28;20061;-78
2022/08/02 03:45:48;;;;;;;3.83;2.00;;;;;;;14.60;64.93;94645.75;5075857;28;20047;-78
2022/08/02 03:48:14;;;;;;;2.28;1.80;;;;;;;14.44;64.25;94642.06;5093261;28;20077;-78
2022/08/02 03:50:40;;;;;;;3.10;2.00;;;;;;;14.50;65.37;94640.63;5110696;28;20474;-78
2022/08/02 03:53:06;;;;;;;2.65;2.20;;;;;;;14.31;64.48;94637.25;5075770;28;20446;-79
2022/08/02 03:55:31;;;;;;;3.55;2.35;;;;;;;14.29;64.20;94626.16;5077816;28;20028;-78
2022/08/02 03:57:57;;;;;;;5.22;2.30;;;;;;;14.29;65.21;94633.97;5095995;28;20512;-78
2022/08/02 04:00:22;;;;;;;3.10;2.03;;;;;;;14.30;64.69;94626.97;5095947;28;20103;-78
2022/08/02 04:02:48;;;;;;;4.20;2.10;;;;;;;14.78;65.92;94690.97;5114373;28;20032;-78
2022/08/02 04:05:15;;;;;;;2.90;2.03;;;;;;;14.40;66.51;94635.53;5096013;28;20024;-78
2022/08/02 04:07:42;;;;;;;3.47;2.33;;;;;;;14.31;66.20;94647.69;5079223;28;20088;-77
2022/08/02 04:10:08;;;;;;;3.13;2.45;;;;;;;14.79;65.78;94703.06;5095960;28;20184;-78
2022/08/02 04:12:34;;;;;;;2.65;2.30;;;;;;;14.42;66.61;94651.84;5114198;28;20085;-77
2022/08/02 04:14:59;;;;;;;2.85;2.40;;;;;;;14.90;66.37;94662.75;5096168;28;20397;-77
2022/08/02 04:17:25;;;;;;;3.75;2.20;;;;;;;16.31;62.60;94666.28;5095765;28;20111;-78
2022/08/02 04:20:06;;;;;;;2.80;2.38;;;;;;;18.59;55.28;94666.06;5095557;28;20477;-77
2022/08/02 04:22:36;;;;;;;;;;;;;;;21.85;46.73;94706.81;5095969;28;20039;-78
2022/08/02 04:25:03;;;;;;;3.27;1.97;;;;;;;23.05;42.52;94653.97;5096007;28;19916;-78
2022/08/02 04:27:29;;;;;;;4.32;2.20;;;;;;;25.04;38.95;94697.06;5095568;28;20120;-78
2022/08/02 04:29:55;;;;;;;2.80;1.92;;;;;;;26.05;36.20;94663.00;5095564;28;20072;-78
2022/08/02 04:32:20;;;;;;;2.50;1.90;;;;;;;26.65;34.90;94651.44;5095450;28;20027;-78
2022/08/02 04:34:46;;;;;;;3.88;1.88;;;;;;;27.53;33.90;94695.81;5095146;28;20035;-78
2022/08/02 04:37:12;;;;;;;3.47;2.00;;;;;;;28.01;33.23;94689.31;5095129;28;20023;-78
2022/08/02 04:39:39;;;;;;;4.18;1.88;;;;;;;28.31;32.03;94660.75;5126031;27;20031;-78
2022/08/02 04:42:05;;;;;;;2.88;1.88;;;;;;;29.21;30.67;94667.78;5134001;27;20192;-79
2022/08/02 04:44:30;;;;;;;3.60;1.80;;;;;;;29.33;30.87;94654.28;5133991;27;20047;-79
2022/08/02 04:46:57;;;;;;;2.35;1.83;;;;;;;29.52;30.40;94663.63;5108319;27;20023;-79
2022/08/02 04:49:22;;;;;;;2.90;2.00;;;;;;;29.40;30.05;94655.72;5111488;28;20465;-79
2022/08/02 04:51:48;;;;;;;5.20;2.00;;;;;;;29.88;28.48;94644.53;5104039;28;20073;-79
2022/08/02 04:54:13;;;;;;;4.45;2.05;;;;;;;29.99;29.84;94654.28;5091329;28;20039;-79
2022/08/02 04:56:39;;;;;;;2.65;1.98;;;;;;;30.47;28.82;94652.63;5094376;28;20027;-79
2022/08/02 04:59:05;;;;;;;3.10;1.83;;;;;;;30.96;28.36;94660.53;5111910;28;20462;-80
2022/08/02 05:01:31;;;;;;;3.38;1.73;;;;;;;31.48;28.56;94688.50;5107073;28;20023;-80
2022/08/02 05:03:56;;;;;;;3.75;1.90;;;;;;;31.39;28.60;94682.81;5099131;28;20443;-79
2022/08/02 05:06:22;;;;;;;3.05;1.85;;;;;;;29.32;30.59;94658.84;5110564;28;20035;-80
2022/08/02 05:08:48;;;;;;;3.70;1.80;;;;;;;27.62;34.16;94641.03;5112230;28;20107;-80
2022/08/02 05:11:13;;;;;;;3.78;1.88;;;;;;;26.87;35.66;94692.47;5110075;28;20061;-79
2022/08/02 05:13:42;;;;;;;3.30;1.95;;;;;;;26.00;36.85;94681.50;5102484;28;20039;-79
2022/08/02 05:16:07;;;;;;;5.03;3.42;;;;;;;25.57;36.39;94656.63;5110470;28;20122;-79
2022/08/02 05:18:33;;;;;;;5.72;2.88;;;;;;;25.07;37.65;94661.28;5111952;28;20064;-79
2022/08/02 05:20:58;;;;;;;4.38;2.90;;;;;;;25.12;37.69;94707.41;5110049;28;20436;-79
2022/08/02 05:23:24;;;;;;;7.97;3.72;;;;;;;24.50;38.39;94656.91;5109688;28;20022;-79
2022/08/02 05:25:49;;;;;;;4.78;3.70;;;;;;;24.26;39.43;94671.75;5111477;28;20032;-79
2022/08/02 05:28:15;;;;;;;5.43;3.20;;;;;;;24.49;39.07;94719.00;5110632;28;20050;-79
2022/08/02 05:30:41;;;;;;;4.88;3.10;;;;;;;24.18;39.04;94719.78;5092272;28;20035;-79
2022/08/02 05:33:06;;;;;;;8.40;3.10;;;;;;;24.02;39.98;94683.16;5087102;28;20098;-78
2022/08/02 05:35:32;;;;;;;4.38;2.90;;;;;;;23.47;40.31;94682.78;5092234;28;20019;-78
2022/08/02 05:37:58;;;;;;;6.80;3.00;;;;;;;23.67;39.80;94680.03;5109830;28;20044;-79
2022/08/02 05:40:23;;;;;;;6.38;2.85;;;;;;;23.69;41.38;94681.44;5111590;28;20512;-79
2022/08/02 05:42:49;;;;;;;5.50;2.60;;;;;;;24.07;39.66;94723.09;5112184;28;20031;-79
2022/08/02 05:45:14;;;;;;;5.55;3.20;;;;;;;23.59;38.98;94681.88;5104106;28;20498;-79
2022/08/02 05:47:40;;;;;;;6.45;2.65;;;;;;;23.18;38.90;94675.13;5107613;28;20110;-79
2022/08/02 05:50:06;;;;;;;5.55;2.30;;;;;;;23.67;40.73;94709.19;5092369;28;20385;-79
2022/08/02 05:52:45;;;;;;;4.97;2.63;;;;;;;23.64;40.32;94683.91;5093790;28;20035;-79
2022/08/02 05:55:15;;;;;;;11.20;2.80;;;;;;;23.50;39.30;94688.47;5106532;28;20039;-78
2022/08/02 05:57:53;;;;;;;4.25;2.80;;;;;;;23.37;39.00;94683.19;5109758;28;20058;-78
2022/08/02 06:00:19;;;;;;;6.18;2.40;;;;;;;23.76;40.75;94731.81;5109527;28;20588;-79
2022/08/02 06:03:15;;;;;;;3.38;2.42;;;;;;;23.92;40.62;94734.00;5110374;28;20035;-79
2022/08/02 06:05:45;;;;;;;4.20;2.28;;;;;;;23.79;38.96;94720.78;5092923;28;20044;-79
2022/08/02 06:08:12;;;;;;;4.50;2.50;;;;;;;23.68;38.61;94734.69;5104865;28;20064;-79
2022/08/02 06:10:37;;;;;;;7.55;2.50;;;;;;;23.59;42.54;94731.44;5072808;28;20024;-79
2022/08/02 06:13:07;;;;;;;4.55;2.30;;;;;;;23.55;40.20;94704.56;5074135;28;20082;-79
2022/08/02 06:15:33;;;;;;;3.35;2.10;;;;;;;23.62;39.12;94710.66;5055745;28;20035;-79
2022/08/02 06:17:59;;;;;;;4.93;2.60;;;;;;;23.84;38.06;94736.88;5064607;28;20458;-78
2022/08/02 06:20:25;;;;;;;6.97;2.58;;;;;;;23.63;38.66;94699.03;5090552;28;20023;-80
2022/08/02 06:22:51;;;;;;;4.85;2.50;;;;;;;23.85;39.11;94733.22;5087298;28;20035;-78
2022/08/02 06:25:16;;;;;;;5.97;2.90;;;;;;;23.63;39.76;94738.78;5092349;28;20081;-79
2022/08/02 06:27:51;;;;;;;4.50;2.47;;;;;;;23.85;40.19;94742.00;5076246;28;20039;-84
2022/08/02 06:30:17;;;;;;;8.25;2.60;;;;;;;23.96;38.36;94729.91;5060838;28;20023;-82
2022/08/02 06:32:42;;;;;;;4.75;2.70;;;;;;;24.16;38.38;94726.34;5076103;28;20413;-78
2022/08/02 06:35:08;;;;;;;4.25;2.33;;;;;;;24.14;37.57;94707.97;5092797;28;20039;-79
2022/08/02 06:37:45;;;;;;;4.90;1.75;;;;;;;24.58;36.38;94742.63;5097739;28;20027;-79
2022/08/02 06:40:17;;;;;;;2.42;1.60;;;;;;;24.52;36.57;94713.25;5073057;28;20035;-79
2022/08/02 06:43:07;;;;;;;2.72;2.05;;;;;;;24.95;34.72;94752.34;5079410;28;20097;-79
2022/08/02 06:45:33;;;;;;;2.42;1.80;;;;;;;24.93;35.09;94717.22;5072803;28;20047;-79
2022/08/02 06:48:00;;;;;;;4.32;1.98;;;;;;;25.22;34.87;94746.81;5091080;28;20040;-78
2022/08/02 06:50:25;;;;;;;3.33;1.85;;;;;;;25.11;33.58;94735.03;5091112;28;20068;-78
2022/08/02 06:52:51;;;;;;;2.75;1.55;;;;;;;25.24;33.72;94743.94;5074523;28;20482;-77
2022/08/02 06:55:16;;;;;;;2.28;1.60;;;;;;;25.19;34.76;94739.28;5072896;28;20039;-78
2022/08/02 06:57:42;;;;;;;3.15;1.70;;;;;;;25.40;33.73;94746.00;5090834;28;20525;-77
2022/08/02 07:00:08;;;;;;;3.88;1.80;;;;;;;25.35;33.87;94732.56;5072616;28;20028;-78
2022/08/02 07:02:35;;;;;;;7.30;2.00;;;;;;;25.46;33.64;94739.81;5056455;28;20028;-78
2022/08/02 07:05:01;;;;;;;3.22;1.65;;;;;;;25.55;33.33;94748.34;5072864;28;20056;-77
2022/08/02 07:07:26;;;;;;;1.90;1.60;;;;;;;25.59;33.48;94738.88;5072725;28;20539;-78
2022/08/02 07:09:52;;;;;;;5.93;2.15;;;;;;;25.70;34.06;94745.28;5090825;28;20405;-78
2022/08/02 07:12:17;;;;;;;3.50;1.80;;;;;;;25.76;33.58;94739.06;5056155;28;20032;-78
2022/08/02 07:14:43;;;;;;;3.38;1.77;;;;;;;25.67;32.91;94714.63;5090502;28;20025;-78
2022/08/02 07:17:09;;;;;;;4.65;1.73;;;;;;;25.79;33.70;94739.44;5090583;28;20035;-77
2022/08/02 07:19:34;;;;;;;2.17;1.80;;;;;;;25.89;33.29;94743.47;5090593;28;20371;-78
2022/08/02 07:21:59;;;;;;;3.13;1.92;;;;;;;25.96;32.97;94754.81;5072583;28;20028;-78
2022/08/02 07:24:25;;;;;;;3.33;1.75;;;;;;;26.05;32.71;94751.66;5090479;28;22205;-78
2022/08/02 07:26:50;;;;;;;3.72;1.73;;;;;;;26.04;32.71;94739.34;5090454;28;20032;-77
2022/08/02 07:29:16;;;;;;;2.42;1.60;;;;;;;26.13;32.75;94744.38;5074330;28;20077;-78
2022/08/02 07:31:42;;;;;;;2.88;1.60;;;;;;;25.97;33.11;94698.72;5094317;28;20077;-77
2022/08/02 07:34:07;;;;;;;3.30;1.60;;;;;;;26.09;32.57;94706.75;5076156;28;20020;-78
2022/08/02 07:36:33;;;;;;;3.30;1.50;;;;;;;26.36;32.98;94738.34;5076239;28;20032;-77
2022/08/02 07:38:58;;;;;;;3.85;1.60;;;;;;;26.38;31.91;94734.38;5094337;28;20028;-77
2022/08/02 07:41:24;;;;;;;3.45;1.70;;;;;;;26.33;32.15;94725.44;5059735;28;20494;-77
2022/08/02 07:43:50;;;;;;;2.67;1.50;;;;;;;26.49;32.68;94740.78;5076003;28;20052;-78
2022/08/02 07:46:15;;;;;;;2.97;1.50;;;;;;;26.57;32.18;94740.50;5094543;28;20060;-77
2022/08/02 07:48:41;;;;;;;3.47;1.40;;;;;;;26.66;31.69;94738.31;5094361;28;20478;-78
2022/08/02 07:51:06;;;;;;;2.08;1.60;;;;;;;26.66;31.98;94725.81;5075933;28;20054;-78
2022/08/02 07:53:32;;;;;;;2.97;1.70;;;;;;;26.82;31.70;94736.84;5093921;28;20024;-77
2022/08/02 07:55:57;;;;;;;2.58;1.20;;;;;;;26.70;31.58;94742.16;5094450;28;20064;-78
2022/08/02 07:58:23;;;;;;;4.00;1.67;;;;;;;26.63;32.44;94728.91;5093962;28;20024;-78
2022/08/02 08:00:48;;;;;;;3.03;1.67;;;;;;;26.81;32.34;94751.22;5042677;28;20032;-77
2022/08/02 08:03:14;;;;;;;4.10;1.30;;;;;;;26.87;32.04;94742.28;5075808;28;20039;-78
2022/08/02 08:05:39;;;;;;;2.70;1.30;;;;;;;26.71;32.12;94709.13;5093990;28;20029;-77
2022/08/02 08:08:05;;;;;;;3.22;1.63;;;;;;;26.98;32.34;94751.34;5042603;28;20040;-77
2022/08/02 08:10:31;;;;;;;3.50;1.27;;;;;;;27.01;31.58;94751.69;5093990;28;20068;-77
2022/08/02 08:12:56;;;;;;;3.88;1.30;;;;;;;27.02;31.28;94742.63;5093816;28;20086;-77
2022/08/02 08:15:22;;;;;;;2.72;1.30;;;;;;;26.89;31.09;94742.88;5093921;28;20030;-78
2022/08/02 08:17:47;;;;;;;2.03;1.15;;;;;;;27.01;32.38;94730.38;5093655;28;20024;-78
2022/08/02 08:20:13;;;;;;;3.72;1.40;;;;;;;27.06;32.51;94727.00;5058797;28;20401;-77
2022/08/02 08:22:38;;;;;;;3.35;1.50;;;;;;;27.12;31.65;94728.75;5075352;28;20024;-77
2022/08/02 08:25:04;;;;;;;2.45;1.33;;;;;;;26.91;31.78;94688.31;5075352;28;20036;-78
2022/08/02 08:27:30;;;;;;;2.28;1.30;;;;;;;27.26;31.31;94732.03;5093215;28;20460;-77
2022/08/02 08:29:56;;;;;;;2.78;1.58;;;;;;;27.07;30.21;94726.75;5075223;28;20032;-77
2022/08/02 08:32:21;;;;;;;4.38;1.50;;;;;;;26.96;31.61;94720.38;5075333;28;20062;-77
2022/08/02 08:34:47;;;;;;;4.47;1.80;;;;;;;27.15;31.42;94731.75;5058579;28;20106;-77
2022/08/02 08:37:13;;;;;;;2.10;1.40;;;;;;;27.19;31.70;94729.47;5058734;28;20024;-78
2022/08/02 08:39:39;;;;;;;2.83;1.38;;;;;;;27.28;31.46;94735.28;5093159;28;20489;-77
2022/08/02 08:42:08;;;;;;;4.97;1.45;;;;;;;27.05;31.20;94704.88;5092599;28;20059;-77
2022/08/02 08:44:34;;;;;;;2.75;1.33;;;;;;;27.26;32.40;94726.69;5075042;28;20127;-77
2022/08/02 08:47:00;;;;;;;2.80;1.25;;;;;;;27.34;32.21;94719.16;5075110;28;20036;-77
2022/08/02 08:49:33;;;;;;;1.98;1.20;;;;;;;27.37;31.47;94715.19;5074954;28;20479;-78
2022/08/02 08:52:02;;;;;;;3.85;1.35;;;;;;;27.47;30.91;94723.44;5058838;28;20036;-78
2022/08/02 08:54:30;;;;;;;3.30;1.43;;;;;;;27.43;30.51;94716.94;5075247;28;20020;-77
2022/08/02 08:56:55;;;;;;;1.50;1.00;;;;;;;27.43;29.81;94722.25;5058382;28;20123;-77
2022/08/02 08:59:20;;;;;;;1.80;0.93;;;;;;;27.32;30.48;94715.09;5074674;28;20028;-77
2022/08/02 09:01:46;;;;;;;2.30;1.35;;;;;;;27.46;30.37;94724.47;5092966;28;20032;-77
2022/08/02 09:04:12;;;;;;;2.58;1.42;;;;;;;27.45;29.83;94728.19;5057976;28;20052;-77
2022/08/02 09:06:40;;;;;;;1.88;1.10;;;;;;;27.46;30.08;94723.66;5074582;28;20060;-77
2022/08/02 09:09:06;;;;;;;2.70;1.30;;;;;;;27.22;31.14;94674.88;5074914;28;20032;-77
2022/08/02 09:11:31;;;;;;;1.52;0.90;;;;;;;27.48;29.97;94716.22;5074552;28;20028;-78
2022/08/02 09:13:58;;;;;;;2.33;1.17;;;;;;;27.23;30.29;94689.84;5092631;28;20058;-78
2022/08/02 09:16:31;;;;;;;2.38;1.30;;;;;;;27.40;30.33;94712.06;5093052;28;20497;-78
2022/08/02 09:18:56;;;;;;;1.70;1.00;;;;;;;27.54;29.77;94716.09;5058170;28;20520;-78
2022/08/02 09:21:21;;;;;;;1.95;0.95;;;;;;;27.47;30.62;94712.75;5092869;28;20056;-78
2022/08/02 09:23:48;;;;;;;1.90;1.25;;;;;;;27.32;30.38;94677.75;5092344;28;20035;-78
2022/08/02 09:26:15;;;;;;;1.70;0.80;;;;;;;27.51;30.80;94687.22;5074204;28;20035;-78
2022/08/02 09:28:42;;;;;;;3.45;1.08;;;;;;;27.81;30.73;94712.94;5074087;28;20055;-78
2022/08/02 09:31:12;;;;;;;2.83;1.08;;;;;;;27.88;29.93;94713.59;5092332;28;20020;-78
2022/08/02 09:33:39;;;;;;;2.35;1.02;;;;;;;27.89;29.72;94706.41;5092051;28;20036;-78
2022/08/02 09:36:05;;;;;;;2.88;1.00;;;;;;;27.88;30.30;94705.59;5092579;28;20508;-78
2022/08/02 09:38:31;;;;;;;2.97;1.33;;;;;;;27.94;30.41;94704.63;5091960;28;20116;-78
2022/08/02 09:40:57;;;;;;;2.53;1.40;;;;;;;27.85;29.61;94704.22;5092342;28;20039;-78
2022/08/02 09:43:39;;;;;;;1.30;0.95;;;;;;;27.60;30.63;94699.16;5057311;28;20036;-78
2022/08/02 09:46:19;;;;;;;1.55;1.10;;;;;;;27.71;30.99;94704.69;5057443;28;20056;-78
2022/08/02 09:48:57;;;;;;;2.45;0.93;;;;;;;27.73;30.60;94703.41;5073662;28;20545;-78
2022/08/02 09:51:28;;;;;;;2.00;1.00;;;;;;;27.74;31.29;94705.03;5092053;28;20051;-78
2022/08/02 09:53:54;;;;;;;2.10;1.20;;;;;;;27.70;31.19;94705.75;5056503;28;20035;-78
2022/08/02 09:56:21;;;;;;;2.13;1.20;;;;;;;27.60;31.81;94696.47;5092101;28;20456;-78
2022/08/02 09:58:46;;;;;;;1.48;1.10;;;;;;;27.62;31.55;94702.41;5073626;28;20421;-78
2022/08/02 10:01:12;;;;;;;10.13;1.60;;;;;;;27.50;31.84;94696.28;5056895;28;20034;-78
2022/08/02 10:03:52;;;;;;;4.18;1.02;;;;;;;27.57;31.29;94696.16;5056942;28;20082;-78
2022/08/02 10:06:17;;;;;;;2.47;1.13;;;;;;;27.66;30.96;94697.38;5075289;28;20055;-78
2022/08/02 10:08:43;;;;;;;1.75;1.00;;;;;;;27.70;31.14;94687.88;5091348;28;20081;-78
2022/08/02 10:11:08;;;;;;;2.65;1.15;;;;;;;27.87;30.96;94687.97;5056949;28;20081;-78
2022/08/02 10:13:34;;;;;;;3.35;1.10;;;;;;;27.87;30.33;94690.66;5073282;28;20028;-78
2022/08/02 10:16:01;;;;;;;4.85;1.08;;;;;;;27.69;30.71;94677.44;5091381;28;20058;-78
2022/08/02 10:18:26;;;;;;;1.92;1.20;;;;;;;27.66;30.20;94685.91;5073422;28;20028;-78
2022/08/02 10:20:52;;;;;;;1.60;1.00;;;;;;;27.61;31.49;94686.66;5073192;28;20035;-78
2022/08/02 10:23:18;;;;;;;1.60;1.17;;;;;;;26.86;31.30;94642.09;5056481;28;20069;-78
2022/08/02 10:25:43;;;;;;;1.60;1.10;;;;;;;26.95;31.83;94672.66;5073257;28;20478;-78
2022/08/02 10:28:08;;;;;;;2.95;1.20;;;;;;;26.98;31.94;94692.72;5056742;28;20509;-78
2022/08/02 10:30:35;;;;;;;1.67;1.10;;;;;;;27.02;31.85;94689.34;5056417;28;20036;-78
2022/08/02 10:33:01;;;;;;;1.70;1.00;;;;;;;26.94;31.58;94689.69;5056580;28;20063;-78
2022/08/02 10:35:26;;;;;;;6.05;1.17;;;;;;;27.17;31.76;94676.38;5091041;28;20028;-78
2022/08/02 10:37:54;;;;;;;1.77;1.10;;;;;;;27.04;32.74;94671.25;5056266;28;20062;-78
2022/08/02 10:40:22;;;;;;;2.65;1.13;;;;;;;27.17;32.33;94680.91;5056410;28;20089;-78
2022/08/02 10:42:49;;;;;;;1.40;1.00;;;;;;;27.27;31.74;94689.13;5057366;28;20020;-78
2022/08/02 10:45:19;;;;;;;1.65;1.10;;;;;;;27.27;31.96;94664.31;5090980;28;20052;-78
2022/08/02 10:47:59;;;;;;;5.05;1.25;;;;;;;27.40;31.24;94674.72;5090921;28;20028;-78
2022/08/02 10:50:54;;;;;;;;;;;;;;;27.62;32.12;94682.91;5091285;28;20036;-78
2022/08/02 10:53:32;;;;;;;3.45;1.00;;;;;;;27.85;31.56;94677.53;5073334;28;19916;-78
2022/08/02 10:56:02;;;;;;;1.40;0.95;;;;;;;27.94;32.33;94675.28;5058035;28;20043;-78
2022/08/02 10:58:32;;;;;;;1.70;1.10;;;;;;;27.83;30.74;94658.28;5056594;28;20021;-78
2022/08/02 11:01:04;;;;;;;1.48;0.90;;;;;;;27.94;30.72;94680.63;5091260;28;20036;-77
2022/08/02 11:03:31;;;;;;;2.42;1.10;;;;;;;27.92;30.83;94677.41;5074242;28;20112;-78
2022/08/02 11:06:03;;;;;;;2.03;1.00;;;;;;;27.90;31.97;94676.81;5094870;28;20067;-78
2022/08/02 11:08:29;;;;;;;1.55;1.00;;;;;;;28.03;31.75;94673.06;5094911;28;20024;-78
2022/08/02 11:10:59;;;;;;;4.68;1.10;;;;;;;28.13;31.33;94675.09;5076977;28;20058;-78
2022/08/02 11:13:25;;;;;;;2.15;1.00;;;;;;;28.17;31.19;94676.25;5094854;28;20046;-78
2022/08/02 11:15:54;;;;;;;2.08;1.15;;;;;;;28.22;31.20;94676.31;5076879;28;20575;-78
2022/08/02 11:18:20;;;;;;;1.98;1.15;;;;;;;28.11;31.74;94654.00;5095043;28;20617;-78
2022/08/02 11:20:45;;;;;;;2.92;1.00;;;;;;;28.10;31.33;94651.56;5076409;28;20043;-78
2022/08/02 11:23:33;;;;;;;3.42;1.25;;;;;;;28.28;31.11;94680.72;5076542;28;20073;-78
2022/08/02 11:25:58;;;;;;;2.22;1.20;;;;;;;28.26;30.60;94669.47;5094886;28;20121;-78
2022/08/02 11:28:24;;;;;;;2.85;1.00;;;;;;;28.01;30.26;94635.13;5076487;28;20020;-78
2022/08/02 11:30:59;;;;;;;3.15;1.20;;;;;;;27.96;31.23;94673.19;5076616;28;20040;-78
2022/08/02 11:33:32;;;;;;;2.58;1.10;;;;;;;28.04;30.73;94664.81;5076451;28;20016;-78
2022/08/02 11:36:02;;;;;;;2.70;1.40;;;;;;;27.98;30.59;94673.78;5076424;28;20163;-78